createdAt,value
2023-02-28T00:03:11.313Z,74.11
2023-02-28T00:08:12.052Z,73.88
2023-02-28T00:13:12.981Z,72.83
2023-02-28T00:18:15.015Z,73.61
2023-02-28T00:23:15.684Z,75.16
2023-02-28T00:28:16.385Z,73.82
2023-02-28T00:33:18.856Z,74.26
2023-02-28T00:38:19.582Z,73.91
2023-02-28T00:43:20.270Z,74.22
2023-02-28T00:48:22.277Z,75.09
2023-02-28T00:53:23.316Z,75.63
2023-02-28T00:58:24.001Z,75.25
2023-02-28T01:03:27.287Z,74.79
2023-02-28T01:08:28.605Z,74.53
2023-02-28T01:13:29.269Z,75.07
2023-02-28T01:18:31.775Z,75.67
2023-02-28T01:23:33.052Z,75.27
2023-02-28T01:28:33.856Z,75.30
2023-02-28T01:33:36.595Z,75.16
2023-02-28T01:38:37.447Z,75.07
2023-02-28T01:44:00.270Z,74.26
2023-02-28T01:49:08.244Z,74.66
2023-02-28T01:54:14.693Z,74.71
2023-02-28T01:59:21.194Z,75.21
2023-02-28T02:04:25.617Z,74.93
2023-02-28T02:09:26.341Z,75.72
2023-02-28T02:14:39.726Z,75.80
2023-02-28T02:20:26.381Z,76.07
2023-02-28T02:25:31.400Z,75.74
2023-02-28T02:31:01.889Z,75.32
2023-02-28T02:36:09.324Z,76.48
2023-02-28T02:41:16.900Z,75.93
2023-02-28T02:46:22.030Z,75.71
2023-02-28T02:51:26.603Z,75.57
2023-02-28T02:56:30.788Z,74.96
2023-02-28T03:01:33.678Z,76.25
2023-02-28T03:06:36.794Z,75.98
2023-02-28T03:11:39.588Z,75.82
2023-02-28T03:16:53.766Z,76.60
2023-02-28T03:22:10.176Z,77.11
2023-02-28T03:27:17.133Z,77.02
2023-02-28T03:32:23.765Z,77.77
2023-02-28T03:37:28.328Z,77.97
2023-02-28T03:42:31.641Z,78.09
2023-02-28T03:47:37.008Z,78.15
2023-02-28T03:52:45.601Z,78.30
2023-02-28T03:57:55.580Z,78.90
2023-02-28T04:02:56.641Z,78.82
2023-02-28T04:08:06.015Z,79.45
2023-02-28T04:13:06.683Z,79.69
2023-02-28T04:18:07.913Z,80.01
2023-02-28T04:23:09.930Z,79.77
2023-02-28T04:28:11.072Z,80.16
2023-02-28T04:33:11.745Z,80.62
2023-02-28T04:38:13.911Z,80.39
2023-02-28T04:43:14.576Z,80.84
2023-02-28T04:48:15.200Z,80.93
2023-02-28T04:53:17.197Z,80.41
2023-02-28T04:58:18.150Z,80.26
2023-02-28T05:03:18.933Z,80.72
2023-02-28T05:08:20.982Z,81.12
2023-02-28T05:13:21.628Z,80.44
2023-02-28T05:18:22.289Z,80.72
2023-02-28T05:23:24.746Z,80.92
2023-02-28T05:28:25.540Z,81.61
2023-02-28T05:33:26.177Z,81.17
2023-02-28T05:38:28.159Z,81.12
2023-02-28T05:43:28.802Z,81.29
2023-02-28T05:48:29.556Z,82.06
2023-02-28T05:53:32.292Z,82.01
2023-02-28T05:58:33.477Z,82.56
2023-02-28T06:03:34.438Z,82.23
2023-02-28T06:08:36.508Z,81.91
2023-02-28T06:13:37.515Z,82.57
2023-02-28T06:18:38.273Z,81.70
2023-02-28T06:23:40.663Z,81.30
2023-02-28T06:28:41.754Z,81.31
2023-02-28T06:33:43.467Z,81.17
2023-02-28T06:38:49.336Z,81.13
2023-02-28T06:43:50.080Z,80.78
2023-02-28T06:48:50.869Z,80.80
2023-02-28T06:53:53.117Z,80.93
2023-02-28T06:58:54.412Z,80.38
2023-02-28T07:03:55.626Z,80.13
2023-02-28T07:08:57.728Z,78.38
2023-02-28T07:13:59.079Z,76.15
2023-02-28T07:18:59.714Z,75.38
2023-02-28T07:24:01.788Z,73.98
2023-02-28T07:29:03.175Z,74.76
2023-02-28T07:34:04.498Z,74.00
2023-02-28T07:39:06.635Z,73.11
2023-02-28T07:44:07.375Z,72.69
2023-02-28T07:49:08.116Z,71.39
2023-02-28T07:54:10.271Z,71.08
2023-02-28T07:59:11.024Z,70.60
2023-02-28T08:04:11.783Z,71.05
2023-02-28T08:09:13.947Z,67.85
2023-02-28T08:14:14.691Z,66.62
2023-02-28T08:19:15.398Z,66.90
2023-02-28T08:24:17.413Z,67.48
2023-02-28T08:29:19.181Z,65.66
2023-02-28T08:34:19.863Z,66.94
2023-02-28T08:39:21.975Z,65.25
2023-02-28T08:44:22.680Z,64.99
2023-02-28T08:49:23.355Z,63.29
2023-02-28T08:54:25.376Z,63.90
2023-02-28T08:59:26.074Z,64.32
2023-02-28T09:04:26.908Z,61.89
2023-02-28T09:09:29.032Z,61.04
2023-02-28T09:14:29.699Z,59.68
2023-02-28T09:19:30.357Z,60.36
2023-02-28T09:24:33.955Z,58.80
2023-02-28T09:29:36.091Z,57.80
2023-02-28T09:34:37.930Z,57.26
2023-02-28T09:39:40.026Z,55.57
2023-02-28T09:44:45.405Z,54.25
2023-02-28T09:49:48.780Z,53.12
2023-02-28T09:54:50.845Z,52.38
2023-02-28T10:00:02.780Z,49.40
2023-02-28T10:05:15.619Z,49.95
2023-02-28T10:10:24.726Z,46.92
2023-02-28T10:15:28.230Z,47.34
2023-02-28T10:20:30.981Z,47.91
2023-02-28T10:25:33.018Z,49.21
2023-02-28T10:30:33.718Z,48.86
2023-02-28T10:35:35.255Z,50.48
2023-02-28T10:40:37.835Z,49.49
2023-02-28T10:45:39.252Z,49.22
2023-02-28T10:50:46.318Z,49.65
2023-02-28T10:55:59.093Z,49.20
2023-02-28T11:01:01.236Z,48.95
2023-02-28T11:06:09.039Z,47.74
2023-02-28T11:11:11.137Z,46.82
2023-02-28T11:16:14.223Z,46.22
2023-02-28T11:21:22.468Z,48.83
2023-02-28T11:26:42.600Z,49.32
2023-02-28T11:31:43.343Z,48.42
2023-02-28T11:36:45.651Z,47.92
2023-02-28T11:42:06.932Z,47.19
2023-02-28T11:47:15.034Z,46.88
2023-02-28T11:52:23.508Z,46.51
2023-02-28T11:57:50.513Z,46.09
2023-02-28T12:03:06.022Z,46.84
2023-02-28T12:08:25.160Z,45.69
2023-02-28T12:13:37.970Z,45.76
2023-02-28T12:18:53.387Z,45.80
2023-02-28T12:24:12.212Z,45.58
2023-02-28T12:29:20.489Z,46.24
2023-02-28T12:34:24.482Z,46.97
2023-02-28T12:39:30.112Z,45.48
2023-02-28T12:44:39.450Z,47.43
2023-02-28T12:49:45.664Z,47.03
2023-02-28T12:54:52.031Z,47.78
2023-02-28T12:59:57.937Z,48.85
2023-02-28T13:05:34.660Z,49.46
2023-02-28T13:10:45.029Z,48.61
2023-02-28T13:16:03.224Z,50.14
2023-02-28T13:21:04.459Z,49.47
2023-02-28T13:26:05.601Z,50.12
2023-02-28T13:31:08.254Z,48.91
2023-02-28T13:36:11.988Z,48.37
2023-02-28T13:41:57.131Z,49.44
2023-02-28T13:47:25.582Z,49.44
2023-02-28T13:52:26.953Z,49.86
2023-02-28T13:57:41.512Z,49.49
2023-02-28T14:03:07.759Z,48.25
2023-02-28T14:08:16.397Z,48.23
2023-02-28T14:13:45.967Z,47.33
2023-02-28T14:18:56.895Z,47.51
2023-02-28T14:24:27.633Z,47.47
2023-02-28T14:30:01.230Z,47.65
2023-02-28T14:35:15.000Z,47.71
2023-02-28T14:40:19.059Z,47.90
2023-02-28T14:45:21.315Z,47.60
2023-02-28T14:50:26.386Z,48.10
2023-02-28T14:55:30.963Z,48.33
2023-02-28T15:00:34.335Z,48.95
2023-02-28T15:05:36.903Z,49.52
2023-02-28T15:10:37.748Z,50.54
2023-02-28T15:16:00.942Z,50.06
2023-02-28T15:21:08.194Z,50.85
2023-02-28T15:26:09.446Z,51.08
2023-02-28T15:31:23.849Z,51.66
2023-02-28T15:36:30.887Z,52.02
2023-02-28T15:41:39.867Z,51.94
2023-02-28T15:46:41.225Z,52.45
2023-02-28T15:51:43.786Z,52.30
2023-02-28T15:56:47.714Z,52.18
2023-02-28T16:01:49.104Z,52.49
2023-02-28T16:07:04.151Z,52.91
2023-02-28T16:12:06.407Z,53.57
2023-02-28T16:17:09.851Z,53.74
2023-02-28T16:22:12.192Z,54.49
2023-02-28T16:27:20.764Z,54.27
2023-02-28T16:32:21.488Z,54.97
2023-02-28T16:37:23.560Z,55.54
2023-02-28T16:42:26.874Z,56.55
2023-02-28T16:47:27.741Z,56.58
2023-02-28T16:52:29.764Z,58.25
2023-02-28T16:57:31.898Z,57.79
2023-02-28T17:02:33.768Z,58.21
2023-02-28T17:07:35.898Z,59.48
2023-02-28T17:12:36.694Z,59.40
2023-02-28T17:17:39.061Z,59.68
2023-02-28T17:22:41.063Z,60.25
2023-02-28T17:27:41.957Z,60.68
2023-02-28T17:32:42.677Z,61.61
2023-02-28T17:37:44.750Z,62.72
2023-02-28T17:42:45.502Z,62.96
2023-02-28T17:47:49.761Z,64.61
2023-02-28T17:52:52.247Z,64.21
2023-02-28T17:57:52.917Z,64.79
2023-02-28T18:02:53.765Z,65.98
2023-02-28T18:07:55.906Z,66.36
2023-02-28T18:12:56.946Z,67.87
2023-02-28T18:17:57.632Z,67.46
2023-02-28T18:22:59.632Z,68.38
2023-02-28T18:28:00.766Z,69.71
2023-02-28T18:33:03.138Z,69.81
2023-02-28T18:38:08.869Z,70.66
2023-02-28T18:43:10.171Z,71.67
2023-02-28T18:48:10.830Z,72.12
2023-02-28T18:53:12.923Z,72.53
2023-02-28T18:58:14.494Z,72.35
2023-02-28T19:03:15.161Z,72.53
2023-02-28T19:08:17.255Z,72.86
2023-02-28T19:13:18.374Z,74.00
2023-02-28T19:18:19.244Z,74.49
2023-02-28T19:23:21.297Z,75.40
2023-02-28T19:28:22.004Z,75.66
2023-02-28T19:33:22.803Z,75.21
2023-02-28T19:38:24.859Z,75.51
2023-02-28T19:43:25.984Z,75.96
2023-02-28T19:48:28.408Z,76.83
2023-02-28T19:53:32.033Z,76.18
2023-02-28T19:58:33.126Z,76.76
2023-02-28T20:03:33.833Z,77.64
2023-02-28T20:08:35.924Z,77.72
2023-02-28T20:13:36.963Z,77.31
2023-02-28T20:18:38.636Z,77.27
2023-02-28T20:23:40.921Z,77.32
2023-02-28T20:28:42.235Z,77.71
2023-02-28T20:33:46.600Z,77.73
2023-02-28T20:38:49.151Z,77.90
2023-02-28T20:43:54.555Z,81.89
2023-02-28T20:48:55.429Z,78.24
2023-02-28T20:53:57.600Z,77.91
2023-02-28T20:58:58.382Z,77.71
2023-02-28T21:04:00.707Z,77.60
2023-02-28T21:09:04.998Z,77.92
2023-02-28T21:14:07.471Z,78.10
2023-02-28T21:19:10.185Z,78.53
2023-02-28T21:24:12.653Z,79.19
2023-02-28T21:29:14.851Z,79.63
2023-02-28T21:34:18.251Z,79.58
2023-02-28T21:39:23.282Z,80.16
2023-02-28T21:44:28.087Z,79.76
2023-02-28T21:49:28.843Z,80.30
2023-02-28T21:54:30.881Z,80.89
2023-02-28T21:59:31.977Z,80.51
2023-02-28T22:04:32.659Z,80.66
2023-02-28T22:09:34.677Z,80.23
2023-02-28T22:14:35.455Z,80.87
2023-02-28T22:19:36.614Z,80.46
2023-02-28T22:24:38.817Z,80.27
2023-02-28T22:29:39.686Z,80.57
2023-02-28T22:34:40.533Z,80.92
2023-02-28T22:39:42.767Z,81.16
2023-02-28T22:44:44.061Z,81.45
2023-02-28T22:49:45.283Z,81.07
2023-02-28T22:54:50.567Z,81.39
2023-02-28T22:59:51.385Z,81.41
2023-02-28T23:04:52.092Z,81.16
2023-02-28T23:09:54.752Z,81.73
2023-02-28T23:14:55.415Z,81.93
2023-02-28T23:19:56.126Z,81.56
2023-02-28T23:24:58.358Z,81.73
2023-02-28T23:29:59.075Z,82.20
2023-02-28T23:35:00.574Z,82.03
2023-02-28T23:40:03.143Z,82.09
2023-02-28T23:45:04.715Z,81.95
2023-02-28T23:50:06.186Z,82.23
2023-02-28T23:55:09.125Z,82.01
